createdAt,value
2023-02-22T00:01:28.638Z,34.42
2023-02-22T00:03:31.475Z,35.08
2023-02-22T00:05:33.334Z,39.88
2023-02-22T00:07:34.712Z,34.92
2023-02-22T00:09:36.166Z,30.73
2023-02-22T00:11:37.922Z,38.03
2023-02-22T00:13:39.335Z,34.65
2023-02-22T00:15:41.136Z,42.42
2023-02-22T00:17:43.542Z,33.13
2023-02-22T00:19:44.946Z,32.63
2023-02-22T00:21:52.073Z,29.55
2023-02-22T00:23:53.812Z,36.83
2023-02-22T00:25:56.758Z,24.17
2023-02-22T00:27:58.261Z,35.38
2023-02-22T00:30:00.213Z,33.78
2023-02-22T00:32:01.758Z,34.90
2023-02-22T00:34:03.233Z,36.85
2023-02-22T00:36:05.165Z,32.72
2023-02-22T00:38:07.565Z,30.77
2023-02-22T00:40:15.499Z,39.65
2023-02-22T00:42:18.508Z,38.15
2023-02-22T00:44:19.893Z,39.10
2023-02-22T00:46:21.338Z,40.60
2023-02-22T00:48:23.014Z,46.22
2023-02-22T00:50:27.353Z,58.47
2023-02-22T00:52:28.814Z,48.67
2023-02-22T00:54:30.935Z,42.13
2023-02-22T00:56:33.854Z,43.15
2023-02-22T00:58:35.282Z,32.40
2023-02-22T01:00:40.308Z,34.30
2023-02-22T01:02:42.899Z,29.65
2023-02-22T01:04:44.707Z,32.78
2023-02-22T01:06:46.484Z,42.75
2023-02-22T01:08:48.740Z,40.85
2023-02-22T01:10:50.166Z,46.08
2023-02-22T01:12:52.669Z,52.92
2023-02-22T01:14:54.063Z,63.35
2023-02-22T01:16:56.279Z,73.18
2023-02-22T01:18:57.925Z,86.43
2023-02-22T01:20:59.341Z,94.65
2023-02-22T01:23:02.380Z,50.22
2023-02-22T01:25:04.523Z,41.72
2023-02-22T01:27:05.932Z,33.33
2023-02-22T01:29:07.330Z,39.20
2023-02-22T01:31:09.048Z,33.30
2023-02-22T01:33:10.941Z,32.70
2023-02-22T01:35:16.766Z,29.65
2023-02-22T01:37:18.300Z,26.10
2023-02-22T01:39:20.306Z,28.35
2023-02-22T01:41:21.860Z,33.38
2023-02-22T01:43:32.412Z,27.50
2023-02-22T01:45:33.821Z,18.00
2023-02-22T01:47:35.206Z,22.95
2023-02-22T01:49:41.623Z,19.65
2023-02-22T01:51:48.911Z,16.52
2023-02-22T01:53:56.951Z,24.23
2023-02-22T01:55:59.402Z,18.83
2023-02-22T01:58:02.053Z,17.10
2023-02-22T02:00:14.110Z,16.38
2023-02-22T02:02:16.546Z,13.00
2023-02-22T02:04:21.500Z,15.00
2023-02-22T02:06:22.936Z,17.65
2023-02-22T02:08:33.875Z,20.30
2023-02-22T02:10:35.597Z,18.95
2023-02-22T02:12:37.322Z,19.42
2023-02-22T02:14:41.199Z,17.92
2023-02-22T02:16:51.784Z,13.73
2023-02-22T02:18:54.581Z,16.73
2023-02-22T02:21:08.208Z,14.67
2023-02-22T02:23:24.965Z,18.58
2023-02-22T02:25:41.629Z,19.23
2023-02-22T02:28:13.719Z,18.50
2023-02-22T02:30:35.367Z,17.77
2023-02-22T02:32:52.222Z,14.63
2023-02-22T02:35:22.529Z,20.48
2023-02-22T02:37:41.902Z,14.55
2023-02-22T02:39:53.372Z,11.25
2023-02-22T02:41:56.656Z,11.82
2023-02-22T02:44:28.816Z,13.60
2023-02-22T02:46:44.153Z,22.52
2023-02-22T02:48:52.555Z,67.88
2023-02-22T02:50:57.351Z,66.50
2023-02-22T02:53:02.653Z,87.97
2023-02-22T02:55:06.556Z,91.47
2023-02-22T02:57:08.141Z,86.35
2023-02-22T02:59:29.330Z,84.82
2023-02-22T03:02:01.680Z,39.88
2023-02-22T03:04:09.664Z,31.65
2023-02-22T03:06:40.786Z,24.20
2023-02-22T03:08:48.145Z,14.88
2023-02-22T03:10:52.742Z,10.52
2023-02-22T03:13:05.460Z,14.98
2023-02-22T03:15:25.043Z,10.73
2023-02-22T03:17:31.970Z,9.73
2023-02-22T03:19:38.233Z,19.55
2023-02-22T03:22:01.471Z,14.10
2023-02-22T03:24:19.421Z,12.35
2023-02-22T03:26:29.297Z,12.27
2023-02-22T03:28:33.392Z,14.85
2023-02-22T03:30:42.687Z,16.88
2023-02-22T03:32:49.128Z,15.48
2023-02-22T03:34:58.240Z,17.88
2023-02-22T03:37:05.523Z,16.15
2023-02-22T03:39:11.878Z,13.45
2023-02-22T03:41:17.850Z,13.05
2023-02-22T03:43:25.506Z,13.70
2023-02-22T03:45:30.224Z,14.32
2023-02-22T03:47:41.125Z,15.63
2023-02-22T03:49:58.275Z,15.98
2023-02-22T03:52:00.118Z,15.60
2023-02-22T03:54:03.184Z,15.70
2023-02-22T03:56:07.661Z,14.63
2023-02-22T03:58:14.132Z,9.95
2023-02-22T04:00:19.566Z,13.07
2023-02-22T04:02:20.975Z,12.13
2023-02-22T04:04:24.207Z,14.57
2023-02-22T04:09:24.797Z,12.30
2023-02-22T04:11:26.376Z,13.32
2023-02-22T04:13:28.157Z,10.50
2023-02-22T04:15:29.900Z,15.38
2023-02-22T04:17:31.477Z,10.88
2023-02-22T04:19:32.930Z,23.83
2023-02-22T04:21:34.705Z,83.88
2023-02-22T04:23:36.121Z,223.65
2023-02-22T04:25:37.572Z,94.80
2023-02-22T04:27:39.170Z,225.68
2023-02-22T04:29:40.834Z,41.92
2023-02-22T04:31:42.301Z,49.95
2023-02-22T04:33:43.871Z,23.50
2023-02-22T04:35:45.313Z,44.55
2023-02-22T04:37:46.761Z,115.28
2023-02-22T04:39:48.410Z,68.43
2023-02-22T04:41:49.863Z,241.93
2023-02-22T04:43:51.388Z,122.60
2023-02-22T04:45:52.867Z,964.40
2023-02-22T04:47:54.279Z,733.63
2023-02-22T04:49:55.738Z,270.17
2023-02-22T04:51:57.266Z,308.77
2023-02-22T04:53:58.699Z,208.40
2023-02-22T04:56:00.175Z,398.92
2023-02-22T04:58:01.737Z,640.70
2023-02-22T05:00:05.175Z,1025.32
2023-02-22T05:02:06.614Z,273.65
2023-02-22T05:04:08.191Z,76.38
2023-02-22T05:06:09.767Z,90.18
2023-02-22T05:08:11.178Z,67.78
2023-02-22T05:10:12.628Z,76.22
2023-02-22T05:12:14.042Z,100.15
2023-02-22T05:14:15.540Z,74.13
2023-02-22T05:16:17.330Z,39.08
2023-02-22T05:18:18.761Z,36.90
2023-02-22T05:20:29.699Z,65.15
2023-02-22T05:22:31.199Z,31.75
2023-02-22T05:24:32.595Z,54.92
2023-02-22T05:26:34.015Z,47.17
2023-02-22T05:28:35.413Z,21.02
2023-02-22T05:30:37.372Z,21.27
2023-02-22T05:32:38.841Z,32.70
2023-02-22T05:34:40.431Z,20.67
2023-02-22T05:36:41.987Z,21.73
2023-02-22T05:38:43.525Z,17.90
2023-02-22T05:40:45.070Z,19.63
2023-02-22T05:42:48.956Z,19.33
2023-02-22T05:44:50.473Z,22.75
2023-02-22T05:46:52.224Z,20.33
2023-02-22T05:48:53.636Z,34.83
2023-02-22T05:50:55.032Z,46.33
2023-02-22T05:52:56.737Z,35.53
2023-02-22T05:54:58.258Z,33.85
2023-02-22T05:56:59.722Z,21.60
2023-02-22T05:59:01.481Z,16.33
2023-02-22T06:01:03.441Z,15.52
2023-02-22T06:03:07.625Z,15.82
2023-02-22T06:05:09.437Z,20.77
2023-02-22T06:07:10.865Z,18.20
2023-02-22T06:09:12.325Z,21.95
2023-02-22T06:11:14.214Z,17.40
2023-02-22T06:13:15.643Z,18.77
2023-02-22T06:15:18.759Z,28.40
2023-02-22T06:17:20.677Z,36.95
2023-02-22T06:19:22.736Z,34.85
2023-02-22T06:21:24.124Z,40.45
2023-02-22T06:23:26.726Z,53.88
2023-02-22T06:25:30.047Z,43.30
2023-02-22T06:27:32.425Z,20.08
2023-02-22T06:29:34.062Z,22.98
2023-02-22T06:31:35.781Z,21.15
2023-02-22T06:33:37.333Z,19.75
2023-02-22T06:35:38.920Z,15.93
2023-02-22T06:37:40.421Z,16.20
2023-02-22T06:39:41.859Z,16.70
2023-02-22T06:41:45.657Z,22.48
2023-02-22T06:43:47.930Z,18.30
2023-02-22T06:45:49.442Z,20.30
2023-02-22T06:47:51.152Z,20.27
2023-02-22T06:49:54.143Z,16.60
2023-02-22T06:51:55.586Z,19.88
2023-02-22T06:53:57.279Z,13.35
2023-02-22T06:55:58.956Z,17.10
2023-02-22T06:58:01.421Z,15.65
2023-02-22T07:00:03.161Z,20.05
2023-02-22T07:02:04.560Z,22.52
2023-02-22T07:04:05.994Z,26.63
2023-02-22T07:06:08.614Z,19.25
2023-02-22T07:08:10.496Z,26.77
2023-02-22T07:10:27.987Z,31.13
2023-02-22T07:12:29.885Z,26.70
2023-02-22T07:14:31.306Z,33.08
2023-02-22T07:16:32.786Z,23.35
2023-02-22T07:18:34.445Z,24.20
2023-02-22T07:20:36.055Z,41.75
2023-02-22T07:22:38.814Z,26.45
2023-02-22T07:24:40.216Z,28.37
2023-02-22T07:26:42.174Z,36.97
2023-02-22T07:28:43.606Z,24.30
2023-02-22T07:30:45.241Z,16.73
2023-02-22T07:32:47.413Z,20.60
2023-02-22T07:34:48.856Z,17.00
2023-02-22T07:36:50.580Z,49.10
2023-02-22T07:38:51.995Z,25.05
2023-02-22T07:40:53.520Z,17.73
2023-02-22T07:42:56.931Z,24.60
2023-02-22T07:44:58.346Z,17.75
2023-02-22T07:46:59.756Z,19.08
2023-02-22T07:49:01.320Z,19.38
2023-02-22T07:51:02.793Z,22.08
2023-02-22T07:53:07.229Z,13.68
2023-02-22T07:55:08.810Z,15.23
2023-02-22T07:57:10.220Z,15.82
2023-02-22T07:59:11.624Z,16.35
2023-02-22T08:01:13.229Z,12.40
2023-02-22T08:03:17.249Z,21.67
2023-02-22T08:05:19.399Z,17.73
2023-02-22T08:07:21.155Z,9.88
2023-02-22T08:09:22.554Z,16.92
2023-02-22T08:11:25.177Z,18.45
2023-02-22T08:13:26.672Z,19.88
2023-02-22T08:15:33.950Z,13.63
2023-02-22T08:17:35.527Z,21.25
2023-02-22T08:19:37.290Z,21.50
2023-02-22T08:21:38.709Z,13.90
2023-02-22T08:23:40.087Z,13.15
2023-02-22T08:25:41.977Z,15.77
2023-02-22T08:27:43.974Z,14.38
2023-02-22T08:29:47.676Z,15.13
2023-02-22T08:33:53.764Z,14.43
2023-02-22T08:35:55.187Z,18.50
2023-02-22T08:38:00.425Z,11.25
2023-02-22T08:40:01.835Z,16.77
2023-02-22T08:42:03.631Z,18.13
2023-02-22T08:44:05.223Z,20.65
2023-02-22T08:46:06.660Z,24.05
2023-02-22T08:48:08.047Z,15.70
2023-02-22T08:50:15.599Z,13.73
2023-02-22T08:52:17.026Z,9.55
2023-02-22T08:54:18.770Z,10.40
2023-02-22T08:56:20.974Z,10.55
2023-02-22T08:58:22.357Z,13.40
2023-02-22T09:00:23.930Z,12.52
2023-02-22T09:02:25.896Z,13.63
2023-02-22T09:04:27.312Z,56.55
2023-02-22T09:06:29.549Z,521.63
2023-02-22T09:08:31.200Z,14.80
2023-02-22T09:10:34.501Z,10.02
2023-02-22T09:12:35.900Z,14.75
2023-02-22T09:14:38.229Z,13.85
2023-02-22T09:18:44.244Z,16.60
2023-02-22T09:20:46.560Z,49.60
2023-02-22T09:22:49.188Z,27.25
2023-02-22T09:24:52.383Z,23.77
2023-02-22T09:26:54.297Z,34.00
2023-02-22T09:28:55.709Z,94.70
2023-02-22T09:30:57.126Z,19.10
2023-02-22T09:33:05.489Z,17.98
2023-02-22T09:35:07.478Z,22.58
2023-02-22T09:37:08.876Z,42.00
2023-02-22T09:39:10.554Z,43.00
2023-02-22T09:41:27.908Z,35.53
2023-02-22T09:43:41.715Z,17.02
2023-02-22T09:46:09.379Z,14.35
2023-02-22T09:48:21.625Z,11.38
2023-02-22T09:50:28.071Z,16.50
2023-02-22T09:52:35.786Z,12.32
2023-02-22T09:54:44.073Z,8.98
2023-02-22T09:56:48.685Z,11.30
2023-02-22T09:58:55.394Z,10.20
2023-02-22T10:01:00.963Z,21.52
2023-02-22T10:03:25.031Z,26.13
2023-02-22T10:05:34.278Z,25.33
2023-02-22T10:07:56.927Z,13.77
2023-02-22T10:09:59.469Z,22.55
2023-02-22T10:12:10.250Z,32.53
2023-02-22T10:14:48.796Z,12.18
2023-02-22T10:17:08.891Z,10.25
2023-02-22T10:19:37.904Z,20.30
2023-02-22T10:21:51.507Z,15.43
2023-02-22T10:24:24.206Z,25.10
2023-02-22T10:26:28.782Z,18.13
2023-02-22T10:28:42.348Z,69.90
2023-02-22T10:31:03.928Z,33.72
2023-02-22T10:33:13.889Z,68.93
2023-02-22T10:35:21.013Z,62.15
2023-02-22T10:37:28.878Z,22.80
2023-02-22T10:39:36.872Z,31.80
2023-02-22T10:41:46.780Z,40.70
2023-02-22T10:43:48.187Z,25.55
2023-02-22T10:45:54.009Z,13.63
2023-02-22T10:47:57.561Z,16.52
2023-02-22T10:50:00.543Z,17.45
2023-02-22T10:52:04.596Z,39.35
2023-02-22T10:54:15.202Z,22.08
2023-02-22T10:56:22.456Z,16.75
2023-02-22T10:58:24.309Z,10.10
2023-02-22T11:00:38.316Z,22.00
2023-02-22T11:04:54.294Z,44.80
2023-02-22T11:06:58.827Z,24.38
2023-02-22T11:09:18.012Z,17.33
2023-02-22T11:11:25.119Z,26.00
2023-02-22T11:13:38.653Z,23.08
2023-02-22T11:15:40.099Z,21.65
2023-02-22T11:17:42.127Z,40.38
2023-02-22T11:19:48.534Z,33.50
2023-02-22T11:22:26.825Z,25.05
2023-02-22T11:24:34.610Z,12.50
2023-02-22T11:26:48.744Z,10.75
2023-02-22T11:28:52.304Z,11.88
2023-02-22T11:30:54.016Z,18.55
2023-02-22T11:33:20.117Z,26.67
2023-02-22T11:35:37.037Z,17.50
2023-02-22T11:37:38.694Z,15.15
2023-02-22T11:39:40.163Z,14.77
2023-02-22T11:41:41.612Z,16.77
2023-02-22T11:43:48.957Z,12.40
2023-02-22T11:46:01.098Z,27.30
2023-02-22T11:48:06.585Z,25.60
2023-02-22T11:50:21.393Z,14.07
2023-02-22T11:52:32.858Z,16.80
2023-02-22T11:55:04.568Z,12.23
2023-02-22T11:57:28.320Z,14.80
2023-02-22T11:59:53.314Z,29.10
2023-02-22T12:02:13.197Z,69.60
2023-02-22T12:04:41.275Z,43.47
2023-02-22T12:06:47.505Z,48.50
2023-02-22T12:09:12.197Z,127.60
2023-02-22T12:11:32.661Z,34.75
2023-02-22T12:13:45.249Z,69.18
2023-02-22T12:15:58.456Z,28.48
2023-02-22T12:18:03.070Z,58.22
2023-02-22T12:20:14.989Z,70.18
2023-02-22T12:22:26.161Z,31.65
2023-02-22T12:24:36.243Z,25.67
2023-02-22T12:26:41.119Z,29.92
2023-02-22T12:28:58.749Z,16.83
2023-02-22T12:31:10.673Z,41.15
2023-02-22T12:33:18.822Z,20.50
2023-02-22T12:35:25.184Z,30.75
2023-02-22T12:37:56.389Z,119.35
2023-02-22T12:40:23.631Z,20.90
2023-02-22T12:42:47.095Z,23.88
2023-02-22T12:44:58.209Z,20.40
2023-02-22T12:46:59.925Z,20.45
2023-02-22T12:49:38.228Z,16.08
2023-02-22T12:51:45.819Z,39.42
2023-02-22T12:53:59.295Z,29.05
2023-02-22T12:56:17.550Z,23.88
2023-02-22T12:58:29.616Z,17.50
2023-02-22T13:00:42.521Z,15.52
2023-02-22T13:02:50.999Z,19.15
2023-02-22T13:04:53.460Z,27.75
2023-02-22T13:07:05.475Z,35.05
2023-02-22T13:09:13.069Z,57.92
2023-02-22T13:11:17.873Z,68.72
2023-02-22T13:13:32.344Z,17.55
2023-02-22T13:16:08.247Z,142.90
2023-02-22T13:18:51.211Z,33.17
2023-02-22T13:21:22.842Z,61.03
2023-02-22T13:23:39.546Z,101.45
2023-02-22T13:25:48.439Z,90.57
2023-02-22T13:28:06.014Z,27.83
2023-02-22T13:30:18.477Z,43.17
2023-02-22T13:32:37.754Z,23.90
2023-02-22T13:34:56.828Z,26.70
2023-02-22T13:37:22.343Z,13.73
2023-02-22T13:39:42.315Z,11.05
2023-02-22T13:41:51.793Z,16.48
2023-02-22T13:44:14.593Z,30.55
2023-02-22T13:46:16.502Z,25.27
2023-02-22T13:48:52.251Z,14.68
2023-02-22T13:51:11.883Z,20.65
2023-02-22T13:53:21.514Z,24.17
2023-02-22T13:55:27.685Z,32.83
2023-02-22T13:57:43.675Z,35.80
2023-02-22T13:59:45.161Z,17.30
2023-02-22T14:01:48.754Z,14.35
2023-02-22T14:05:53.474Z,49.25
2023-02-22T14:07:55.111Z,29.40
2023-02-22T14:09:57.759Z,14.93
2023-02-22T14:11:59.308Z,27.70
2023-02-22T14:14:00.861Z,25.52
2023-02-22T14:16:02.483Z,30.60
2023-02-22T14:18:05.906Z,27.15
2023-02-22T14:20:13.345Z,13.93
2023-02-22T14:22:25.517Z,14.10
2023-02-22T14:24:26.921Z,18.08
2023-02-22T14:26:34.512Z,25.40
2023-02-22T14:28:50.787Z,12.98
2023-02-22T14:31:17.409Z,17.45
2023-02-22T14:33:52.003Z,14.63
2023-02-22T14:35:53.754Z,38.63
2023-02-22T14:37:58.188Z,51.63
2023-02-22T14:40:05.096Z,26.35
2023-02-22T14:42:30.331Z,30.25
2023-02-22T14:44:41.977Z,68.78
2023-02-22T14:46:46.376Z,88.80
2023-02-22T14:48:51.736Z,59.53
2023-02-22T14:51:19.081Z,94.43
2023-02-22T14:53:44.787Z,20.10
2023-02-22T14:55:54.731Z,17.92
2023-02-22T14:58:07.867Z,23.00
2023-02-22T15:00:24.140Z,28.37
2023-02-22T15:02:25.646Z,17.85
2023-02-22T15:04:30.420Z,16.67
2023-02-22T15:06:32.746Z,27.02
2023-02-22T15:08:34.201Z,157.57
2023-02-22T15:10:47.694Z,18.13
2023-02-22T15:13:03.664Z,29.48
2023-02-22T15:15:16.614Z,71.10
2023-02-22T15:17:24.220Z,29.25
2023-02-22T15:19:28.956Z,21.05
2023-02-22T15:21:32.099Z,164.93
2023-02-22T15:23:44.376Z,66.53
2023-02-22T15:25:49.883Z,142.07
2023-02-22T15:27:51.619Z,42.97
2023-02-22T15:29:59.694Z,24.33
2023-02-22T15:32:01.205Z,20.60
2023-02-22T15:34:17.007Z,25.73
2023-02-22T15:36:19.990Z,44.30
2023-02-22T15:38:28.006Z,41.92
2023-02-22T15:40:32.603Z,37.13
2023-02-22T15:42:47.582Z,61.80
2023-02-22T15:44:51.934Z,59.47
2023-02-22T15:46:53.394Z,30.00
2023-02-22T15:49:10.242Z,23.67
2023-02-22T15:51:14.432Z,43.20
2023-02-22T15:53:29.293Z,34.55
2023-02-22T15:55:34.486Z,23.52
2023-02-22T15:57:36.027Z,20.45
2023-02-22T15:59:43.579Z,24.23
2023-02-22T16:01:48.589Z,23.17
2023-02-22T16:03:53.124Z,19.40
2023-02-22T16:05:55.881Z,23.15
2023-02-22T16:07:58.232Z,75.77
2023-02-22T16:10:00.300Z,41.08
2023-02-22T16:12:26.038Z,66.78
2023-02-22T16:14:41.324Z,43.45
2023-02-22T16:16:42.815Z,45.97
2023-02-22T16:18:44.321Z,34.47
2023-02-22T16:20:46.002Z,35.40
2023-02-22T16:22:49.793Z,48.60
2023-02-22T16:24:51.254Z,108.38
2023-02-22T16:27:24.925Z,132.65
2023-02-22T16:29:26.816Z,26.30
2023-02-22T16:31:31.582Z,54.03
2023-02-22T16:33:33.197Z,38.78
2023-02-22T16:35:34.821Z,55.70
2023-02-22T16:37:36.339Z,181.07
2023-02-22T16:39:37.802Z,187.90
2023-02-22T16:41:39.478Z,41.53
2023-02-22T16:43:43.118Z,128.52
2023-02-22T16:47:46.481Z,61.10
2023-02-22T16:49:49.885Z,71.47
2023-02-22T16:51:54.207Z,89.35
2023-02-22T16:53:56.414Z,36.83
2023-02-22T16:56:03.073Z,36.35
2023-02-22T16:58:04.866Z,77.15
2023-02-22T17:00:09.060Z,57.65
2023-02-22T17:02:14.292Z,95.50
2023-02-22T17:04:21.788Z,51.85
2023-02-22T17:06:23.502Z,39.47
2023-02-22T17:08:25.411Z,59.25
2023-02-22T17:10:26.890Z,46.15
2023-02-22T17:12:30.115Z,75.35
2023-02-22T17:14:34.924Z,35.42
2023-02-22T17:16:36.499Z,40.28
2023-02-22T17:18:39.205Z,21.45
2023-02-22T17:20:40.586Z,14.47
2023-02-22T17:22:43.059Z,102.47
2023-02-22T17:24:44.754Z,40.28
2023-02-22T17:26:46.461Z,78.57
2023-02-22T17:28:48.029Z,137.25
2023-02-22T17:30:50.053Z,182.88
2023-02-22T17:32:52.047Z,181.10
2023-02-22T17:34:53.614Z,201.30
2023-02-22T17:36:55.094Z,226.45
2023-02-22T17:38:56.660Z,151.57
2023-02-22T17:40:59.471Z,150.02
2023-02-22T17:43:01.368Z,126.80
2023-02-22T17:45:02.810Z,124.90
2023-02-22T17:47:04.395Z,131.90
2023-02-22T17:49:06.346Z,164.55
2023-02-22T17:51:10.324Z,158.25
2023-02-22T17:53:12.628Z,121.78
2023-02-22T17:55:14.160Z,73.03
2023-02-22T17:57:15.562Z,77.20
2023-02-22T17:59:17.036Z,57.67
2023-02-22T18:01:24.386Z,56.25
2023-02-22T18:03:29.267Z,41.63
2023-02-22T18:05:31.552Z,92.55
2023-02-22T18:07:33.032Z,61.28
2023-02-22T18:09:34.456Z,93.55
2023-02-22T18:11:38.351Z,92.55
2023-02-22T18:13:39.865Z,117.78
2023-02-22T18:15:41.271Z,134.13
2023-02-22T18:17:43.966Z,194.75
2023-02-22T18:19:45.543Z,163.27
2023-02-22T18:21:47.019Z,168.52
2023-02-22T18:23:48.678Z,120.82
2023-02-22T18:26:09.214Z,103.90
2023-02-22T18:28:11.830Z,134.45
2023-02-22T18:30:13.660Z,137.57
2023-02-22T18:32:15.271Z,89.78
2023-02-22T18:34:16.686Z,150.20
2023-02-22T18:36:20.132Z,114.20
2023-02-22T18:40:23.680Z,96.43
2023-02-22T18:42:26.815Z,81.32
2023-02-22T18:44:28.286Z,77.60
2023-02-22T18:46:29.819Z,72.90
2023-02-22T18:48:31.825Z,95.22
2023-02-22T18:50:33.282Z,68.43
2023-02-22T18:52:35.600Z,86.38
2023-02-22T18:54:41.329Z,85.00
2023-02-22T18:56:42.921Z,56.78
2023-02-22T18:58:44.321Z,64.18
2023-02-22T19:00:48.653Z,56.47
2023-02-22T19:02:50.389Z,55.35
2023-02-22T19:04:52.075Z,52.85
2023-02-22T19:06:56.636Z,88.10
2023-02-22T19:09:00.709Z,68.15
2023-02-22T19:11:03.952Z,82.30
2023-02-22T19:13:05.642Z,69.53
2023-02-22T19:15:07.390Z,73.57
2023-02-22T19:17:08.906Z,100.45
2023-02-22T19:19:10.409Z,123.03
2023-02-22T19:21:13.208Z,81.78
2023-02-22T19:23:14.632Z,87.63
2023-02-22T19:25:16.269Z,80.10
2023-02-22T19:27:17.724Z,76.47
2023-02-22T19:29:19.818Z,145.73
2023-02-22T19:31:26.326Z,150.40
2023-02-22T19:33:28.073Z,121.07
2023-02-22T19:35:29.821Z,121.75
2023-02-22T19:37:32.395Z,273.73
2023-02-22T19:39:34.018Z,103.82
2023-02-22T19:41:35.437Z,141.20
2023-02-22T19:43:36.966Z,260.42
2023-02-22T19:45:39.564Z,264.45
2023-02-22T19:47:41.004Z,83.38
2023-02-22T19:49:42.455Z,78.63
2023-02-22T19:51:44.150Z,112.97
2023-02-22T19:53:46.298Z,120.82
2023-02-22T19:55:47.772Z,116.15
2023-02-22T19:57:49.317Z,134.98
2023-02-22T19:59:51.142Z,111.18
2023-02-22T20:01:53.515Z,93.88
2023-02-22T20:03:58.839Z,51.40
2023-02-22T20:06:00.324Z,59.58
2023-02-22T20:08:01.826Z,77.07
2023-02-22T20:10:04.976Z,80.25
2023-02-22T20:12:07.044Z,78.72
2023-02-22T20:14:08.530Z,74.03
2023-02-22T20:16:10.995Z,60.45
2023-02-22T20:18:12.412Z,74.28
2023-02-22T20:20:13.907Z,46.65
2023-02-22T20:22:15.366Z,35.88
2023-02-22T20:24:16.755Z,47.67
2023-02-22T20:26:21.994Z,38.65
2023-02-22T20:28:23.904Z,32.80
2023-02-22T20:30:25.311Z,36.70
2023-02-22T20:32:27.154Z,35.53
2023-02-22T20:34:29.235Z,37.13
2023-02-22T20:36:30.795Z,41.88
2023-02-22T20:38:32.401Z,33.13
2023-02-22T20:40:33.960Z,39.65
2023-02-22T20:42:35.386Z,34.60
2023-02-22T20:44:37.176Z,35.75
2023-02-22T20:46:38.670Z,40.25
2023-02-22T20:48:40.123Z,43.95
2023-02-22T20:50:41.588Z,48.53
2023-02-22T20:52:43.080Z,50.92
2023-02-22T20:54:44.461Z,51.20
2023-02-22T20:56:47.066Z,43.13
2023-02-22T20:58:49.163Z,57.10
2023-02-22T21:00:50.692Z,60.35
2023-02-22T21:02:52.216Z,47.15
2023-02-22T21:04:53.709Z,47.83
2023-02-22T21:06:55.126Z,49.65
2023-02-22T21:08:59.762Z,48.85
2023-02-22T21:11:01.610Z,64.57
2023-02-22T21:13:05.516Z,107.95
2023-02-22T21:15:07.553Z,70.22
2023-02-22T21:17:09.320Z,182.40
2023-02-22T21:19:10.835Z,103.95
2023-02-22T21:21:12.798Z,99.68
2023-02-22T21:23:15.794Z,130.52
2023-02-22T21:25:17.216Z,67.75
2023-02-22T21:27:18.843Z,150.07
2023-02-22T21:29:20.487Z,73.18
2023-02-22T21:31:24.806Z,77.97
2023-02-22T21:33:27.893Z,83.80
2023-02-22T21:35:29.913Z,57.50
2023-02-22T21:37:31.310Z,82.50
2023-02-22T21:39:32.884Z,72.90
2023-02-22T21:41:34.655Z,49.88
2023-02-22T21:43:36.036Z,51.20
2023-02-22T21:45:38.291Z,68.40
2023-02-22T21:47:39.882Z,59.65
2023-02-22T21:49:41.297Z,52.35
2023-02-22T21:51:43.059Z,53.13
2023-02-22T21:53:45.885Z,51.97
2023-02-22T21:55:47.310Z,42.28
2023-02-22T21:57:48.834Z,40.17
2023-02-22T21:59:50.382Z,40.55
2023-02-22T22:01:56.463Z,45.15
2023-02-22T22:03:58.740Z,43.20
2023-02-22T22:06:00.266Z,34.33
2023-02-22T22:08:01.714Z,41.90
2023-02-22T22:10:03.457Z,46.17
2023-02-22T22:12:05.455Z,45.03
2023-02-22T22:14:06.951Z,37.78
2023-02-22T22:16:14.117Z,37.88
2023-02-22T22:18:15.614Z,38.55
2023-02-22T22:20:17.075Z,41.22
2023-02-22T22:22:18.488Z,41.78
2023-02-22T22:24:21.175Z,39.70
2023-02-22T22:26:23.856Z,30.70
2023-02-22T22:28:25.440Z,37.87
2023-02-22T22:30:26.957Z,32.70
2023-02-22T22:32:29.130Z,41.53
2023-02-22T22:34:30.762Z,41.78
2023-02-22T22:36:32.227Z,38.67
2023-02-22T22:38:33.651Z,33.60
2023-02-22T22:40:35.435Z,28.00
2023-02-22T22:42:36.906Z,35.30
2023-02-22T22:44:38.291Z,38.05
2023-02-22T22:46:39.905Z,34.13
2023-02-22T22:48:41.462Z,37.97
2023-02-22T22:50:42.882Z,31.98
2023-02-22T22:52:45.539Z,33.55
2023-02-22T22:54:47.029Z,28.13
2023-02-22T22:56:48.426Z,31.02
2023-02-22T22:58:57.116Z,29.23
2023-02-22T23:00:58.561Z,30.27
2023-02-22T23:03:00.074Z,30.15
2023-02-22T23:05:01.779Z,29.25
2023-02-22T23:07:03.541Z,30.48
2023-02-22T23:09:07.071Z,31.05
2023-02-22T23:13:11.552Z,34.05
2023-02-22T23:15:13.000Z,33.72
2023-02-22T23:17:16.113Z,44.03
2023-02-22T23:19:18.502Z,30.73
2023-02-22T23:21:20.616Z,33.03
2023-02-22T23:23:24.426Z,26.90
2023-02-22T23:25:25.815Z,26.48
2023-02-22T23:27:27.211Z,25.80
2023-02-22T23:29:28.780Z,29.83
2023-02-22T23:31:30.251Z,31.80
2023-02-22T23:33:31.719Z,26.67
2023-02-22T23:35:33.380Z,27.15
2023-02-22T23:37:34.833Z,30.13
2023-02-22T23:39:36.628Z,29.58
2023-02-22T23:41:38.110Z,28.77
2023-02-22T23:43:40.605Z,28.13
2023-02-22T23:45:42.094Z,28.35
2023-02-22T23:47:43.480Z,30.10
2023-02-22T23:49:45.011Z,29.67
2023-02-22T23:51:46.981Z,27.63
2023-02-22T23:53:48.371Z,31.70
2023-02-22T23:55:49.845Z,26.98
2023-02-22T23:57:51.573Z,28.55
2023-02-22T23:59:53.132Z,31.65
